Pede Vento — CRLZ9 — position and weather

sailwx.info

Track history (hours):
 
Tides and Currents Weather Stations Pressure Air Temp Water Temp Dewpoint Dewpoint Depression Visibility Wind Speed Wind Dir Waves Ship Positions

Pede Vento

Last reported at 2018-Apr-08 13:38 UTC. Time now 2018-Apr-24 18:36 UTC.
Position N 38°42' W 009°09'.
Warning: this ship's position is 16 days out of date.

Length 12 m.

Type: Sailing vessel. MMSI: 263819560.

Date/timePositionNaut miles runAvg speedWind from/ knotsBaromVisibWave heightAir tempDewpointWater temp
2018-Apr-08 13:38N 38°42' W 009°09'1 2.4
2018-Apr-08 13:19N 38°41' W 009°10'2 7.1
2018-Apr-08 13:00N 38°41' W 009°13'0 1.0
2018-Apr-08 12:29N 38°41' W 009°13'4 2.3
2018-Apr-08 10:35N 38°42' W 009°07'1 1.6
2018-Apr-08 10:15N 38°42' W 009°07'0 1.1
2018-Apr-08 09:58N 38°41' W 009°07'1 0.1
2018-Apr-07 13:27N 38°42' W 009°09'2 2.8
2018-Apr-07 12:53N 38°42' W 009°07'1 3.1
2018-Apr-07 12:26N 38°41' W 009°08'0 0.3
2018-Apr-07 11:55N 38°41' W 009°08'1 0.7
2018-Apr-07 10:38N 38°42' W 009°08'  
Track history (hours):
 
Tides and Currents Weather Stations Pressure Air Temp Water Temp Dewpoint Dewpoint Depression Visibility Wind Speed Wind Dir Waves Ship Positions

Pede Vento

Last reported at 2018-Apr-08 13:38 UTC. Time now 2018-Apr-24 18:36 UTC.
Position N 38°42' W 009°09'.
Warning: this ship's position is 16 days out of date.

Length 12 m.

Type: Sailing vessel. MMSI: 263819560.

Date/timePositionNaut miles runAvg speedWind from/ knotsBaromVisibWave heightAir tempDewpointWater temp
2018-Apr-08 13:38N 38°42' W 009°09'1 2.4
2018-Apr-08 13:19N 38°41' W 009°10'2 7.1
2018-Apr-08 13:00N 38°41' W 009°13'0 1.0
2018-Apr-08 12:29N 38°41' W 009°13'4 2.3
2018-Apr-08 10:35N 38°42' W 009°07'1 1.6
2018-Apr-08 10:15N 38°42' W 009°07'0 1.1
2018-Apr-08 09:58N 38°41' W 009°07'1 0.1
2018-Apr-07 13:27N 38°42' W 009°09'2 2.8
2018-Apr-07 12:53N 38°42' W 009°07'1 3.1
2018-Apr-07 12:26N 38°41' W 009°08'0 0.3
2018-Apr-07 11:55N 38°41' W 009°08'1 0.7
2018-Apr-07 10:38N 38°42' W 009°08'  

Dump ship's entire track history